Create Tblcommutelog Verified Points Advance Search
| # | Trip ID | Id Commuter | Trip Date | Trip Num | Current Lat | Current Lng | Delta Distance | Current Time | Activity | Activity Confidence | Current Speed | |
|---|---|---|---|---|---|---|---|---|---|---|---|---|
| 72961 | 250925_784875_16514072_0735 | 784875 | (not set) | (not set) | 39.063518522422 | -77.122273887817 | 21.8033 | 2025-09-25 08:23:41 | in_vehicle | 100 | 5.1990665820272 | |
| 72962 | 250925_753633_16450333_0823 | 753633 | (not set) | (not set) | 38.8996139 | -77.0034367 | 0 | 2025-09-25 08:23:53 | still | 100 | 0.18328609618497 | |
| 72963 | 250925_785785_6461772_0821 | 785785 | (not set) | (not set) | 38.896558128771 | -77.174029910223 | 2.7781 | 2025-09-25 08:24:01 | in_vehicle | 100 | 10.93905066743 | |
| 72964 | 250925_768780_6440298_0803 | 768780 | (not set) | (not set) | 38.877524166428 | -77.040148272738 | 11.2075 | 2025-09-25 08:24:07 | still | 33 | 4.805672034118 | |
| 72965 | 250925_733516_16657910_0727 | 733516 | (not set) | (not set) | 38.856822173377 | -77.045091573331 | 18.8433 | 2025-09-25 08:24:16 | in_vehicle | 100 | 6.4865396479119 | |
| 72966 | 250925_784278_16513851_0716 | 784278 | (not set) | (not set) | 39.063172509956 | -77.121006872227 | 37.7659 | 2025-09-25 08:24:28 | in_vehicle | 100 | -0.44703925898772 | |
| 72967 | 250925_785785_6461772_0821 | 785785 | (not set) | (not set) | 38.891531913378 | -77.16635374535 | 3.3235 | 2025-09-25 08:24:38 | in_vehicle | 100 | 11.515731311524 | |
| 72968 | 250925_786839_16514813_0809 | 786839 | (not set) | (not set) | 39.441682897344 | -76.367997575104 | 14.65 | 2025-09-25 08:24:50 | in_vehicle | 100 | 14.676298872567 | |
| 72969 | 250925_784875_16514072_0735 | 784875 | (not set) | (not set) | 39.092532392926 | -77.151526785341 | 19.2328 | 2025-09-25 08:17:46 | in_vehicle | 100 | 9.8795676236287 | |
| 72970 | 250925_768780_6440298_0803 | 768780 | (not set) | (not set) | 38.866301212712 | -77.065804081162 | 9.3982 | 2025-09-25 08:17:57 | in_vehicle | 100 | 10.894346741531 | |
| 72971 | 250925_750610_16479164_0808 | 750610 | (not set) | (not set) | 38.728030825089 | -77.190306620646 | 5.7655 | 2025-09-25 08:18:04 | in_vehicle | 100 | 9.7856893792413 | |
| 72972 | 250925_784278_16513851_0716 | 784278 | (not set) | (not set) | 39.114804170911 | -77.160300872209 | 34.4015 | 2025-09-25 08:18:17 | in_vehicle | 100 | 15.074163813066 | |
| 72973 | 250925_768780_6440298_0803 | 768780 | (not set) | (not set) | 38.866583259635 | -77.058760925193 | 9.7924 | 2025-09-25 08:18:25 | in_vehicle | 100 | 10.237199030819 | |
| 72974 | 250925_787832_16447119_0736 | 787832 | (not set) | (not set) | 39.019056383357 | -77.062558472266 | 13.2857 | 2025-09-25 08:17:59 | in_vehicle | 100 | 8.5920945577441 | |
| 72975 | 250925_786649_16503590_0749 | 786649 | (not set) | (not set) | 39.038173138839 | -76.905214395898 | 11.5252 | 2025-09-25 08:18:43 | in_vehicle | 100 | 14.175614902501 | |
| 72976 | 250925_786649_16503590_0749 | 786649 | (not set) | (not set) | 39.041412898215 | -76.903937343437 | 11.759 | 2025-09-25 08:18:55 | in_vehicle | 100 | 14.050443909984 | |
| 72977 | 250925_787812_16432732_0747 | 787812 | (not set) | (not set) | 38.884481775443 | -77.063128597073 | 5.8183 | 2025-09-25 08:18:32 | still | 33 | -0.44703925898772 | |
| 72978 | 250925_770164_16511074_0817 | 770164 | (not set) | (not set) | 38.857660321878 | -77.100603925547 | 0.4459 | 2025-09-25 08:19:08 | in_vehicle | 100 | 6.2585496258281 | |
| 72979 | 250925_784278_16513851_0716 | 784278 | (not set) | (not set) | 39.097640865293 | -77.152986130156 | 35.6543 | 2025-09-25 08:19:17 | in_vehicle | 100 | 14.296315502427 | |
| 72980 | 250925_785550_16514192_0808 | 785550 | (not set) | (not set) | 39.033588343438 | -77.084274224041 | 1.5527 | 2025-09-25 08:19:23 | unknown | 100 | 3.3796167979472 |